sensor_id;sensor_type;location;lat;lon;timestamp;pressure;altitude;pressure_sealevel;temperature;humidity
61682;BME280;47577;43.610;25.010;2022-12-29T00:02:10;101608.56;;;0.99;81.60
61682;BME280;47577;43.610;25.010;2022-12-29T00:04:36;101620.50;;;1.22;80.13
61682;BME280;47577;43.610;25.010;2022-12-29T00:07:01;101609.19;;;1.23;79.52
61682;BME280;47577;43.610;25.010;2022-12-29T00:09:30;101616.28;;;1.29;79.88
61682;BME280;47577;43.610;25.010;2022-12-29T00:11:56;101621.38;;;1.23;80.51
61682;BME280;47577;43.610;25.010;2022-12-29T00:14:21;101610.13;;;1.27;80.76
61682;BME280;47577;43.610;25.010;2022-12-29T00:17:06;101617.44;;;1.40;80.69
61682;BME280;47577;43.610;25.010;2022-12-29T00:19:31;101611.47;;;1.46;80.42
61682;BME280;47577;43.610;25.010;2022-12-29T00:22:15;101617.81;;;1.56;80.26
61682;BME280;47577;43.610;25.010;2022-12-29T00:25:00;101611.47;;;1.46;80.21
61682;BME280;47577;43.610;25.010;2022-12-29T00:27:45;101617.81;;;1.56;80.66
61682;BME280;47577;43.610;25.010;2022-12-29T00:30:29;101610.13;;;1.65;80.40
61682;BME280;47577;43.610;25.010;2022-12-29T00:33:17;101615.50;;;1.71;80.59
61682;BME280;47577;43.610;25.010;2022-12-29T00:36:27;101612.22;;;1.80;81.04
61682;BME280;47577;43.610;25.010;2022-12-29T00:39:02;101606.28;;;1.90;81.02
61682;BME280;47577;43.610;25.010;2022-12-29T00:41:47;101612.75;;;2.06;80.71
61682;BME280;47577;43.610;25.010;2022-12-29T00:44:32;101597.16;;;2.15;80.08
61682;BME280;47577;43.610;25.010;2022-12-29T00:46:57;101616.00;;;2.38;79.21
61682;BME280;47577;43.610;25.010;2022-12-29T00:49:27;101612.69;;;2.49;78.96
61682;BME280;47577;43.610;25.010;2022-12-29T00:52:01;101618.97;;;2.57;78.79
61682;BME280;47577;43.610;25.010;2022-12-29T00:54:29;101612.72;;;2.50;78.89
61682;BME280;47577;43.610;25.010;2022-12-29T00:56:55;101617.75;;;2.40;79.41
61682;BME280;47577;43.610;25.010;2022-12-29T00:59:21;101620.72;;;2.56;78.51
61682;BME280;47577;43.610;25.010;2022-12-29T01:01:49;101624.41;;;2.66;78.75
61682;BME280;47577;43.610;25.010;2022-12-29T01:04:15;101620.13;;;2.73;78.31
61682;BME280;47577;43.610;25.010;2022-12-29T01:06:41;101623.72;;;2.78;79.52
61682;BME280;47577;43.610;25.010;2022-12-29T01:09:08;101617.50;;;2.73;79.11
61682;BME280;47577;43.610;25.010;2022-12-29T01:11:53;101613.19;;;2.29;81.02
61682;BME280;47577;43.610;25.010;2022-12-29T01:14:19;101616.09;;;2.43;81.29
61682;BME280;47577;43.610;25.010;2022-12-29T01:16:45;101608.72;;;2.71;79.72
61682;BME280;47577;43.610;25.010;2022-12-29T01:19:11;101605.44;;;2.83;79.23
61682;BME280;47577;43.610;25.010;2022-12-29T01:21:38;101610.91;;;2.95;79.59
61682;BME280;47577;43.610;25.010;2022-12-29T01:24:03;101603.03;;;2.95;78.74
61682;BME280;47577;43.610;25.010;2022-12-29T01:26:29;101604.72;;;2.93;78.91
61682;BME280;47577;43.610;25.010;2022-12-29T01:28:55;101607.19;;;2.82;77.99
61682;BME280;47577;43.610;25.010;2022-12-29T01:31:20;101604.56;;;2.84;78.63
61682;BME280;47577;43.610;25.010;2022-12-29T01:33:46;101600.16;;;2.83;78.81
61682;BME280;47577;43.610;25.010;2022-12-29T01:36:15;101599.41;;;2.88;78.26
61682;BME280;47577;43.610;25.010;2022-12-29T01:38:41;101602.84;;;2.86;78.67
61682;BME280;47577;43.610;25.010;2022-12-29T01:41:09;101600.13;;;2.80;79.22
61682;BME280;47577;43.610;25.010;2022-12-29T01:43:41;101602.56;;;2.70;79.87
61682;BME280;47577;43.610;25.010;2022-12-29T01:46:30;101605.94;;;2.62;80.58
61682;BME280;47577;43.610;25.010;2022-12-29T01:49:13;101600.72;;;2.63;79.83
61682;BME280;47577;43.610;25.010;2022-12-29T01:54:19;101579.63;;;2.60;79.85
61682;BME280;47577;43.610;25.010;2022-12-29T01:56:48;101572.63;;;2.61;79.91
61682;BME280;47577;43.610;25.010;2022-12-29T01:59:18;101562.19;;;2.64;79.56
61682;BME280;47577;43.610;25.010;2022-12-29T02:01:45;101570.16;;;2.68;80.21
61682;BME280;47577;43.610;25.010;2022-12-29T02:04:12;101560.44;;;2.63;79.08
61682;BME280;47577;43.610;25.010;2022-12-29T02:06:44;101568.38;;;2.66;79.47
61682;BME280;47577;43.610;25.010;2022-12-29T02:09:11;101563.88;;;2.60;79.65
61682;BME280;47577;43.610;25.010;2022-12-29T02:11:38;101557.69;;;2.56;80.18
61682;BME280;47577;43.610;25.010;2022-12-29T02:14:12;101562.94;;;2.55;80.40
61682;BME280;47577;43.610;25.010;2022-12-29T02:30:43;101545.44;;;2.57;80.57
61682;BME280;47577;43.610;25.010;2022-12-29T02:45:02;101533.91;;;2.47;80.43
61682;BME280;47577;43.610;25.010;2022-12-29T02:47:16;101526.81;;;2.42;80.85
61682;BME280;47577;43.610;25.010;2022-12-29T02:51:07;101531.25;;;2.46;80.11
61682;BME280;47577;43.610;25.010;2022-12-29T02:53:05;101519.03;;;2.48;80.21
61682;BME280;47577;43.610;25.010;2022-12-29T02:55:33;101521.50;;;2.38;80.58
61682;BME280;47577;43.610;25.010;2022-12-29T02:58:18;101527.69;;;2.42;80.19
61682;BME280;47577;43.610;25.010;2022-12-29T03:01:13;101522.44;;;2.42;79.88
61682;BME280;47577;43.610;25.010;2022-12-29T03:03:56;101525.09;;;2.44;79.75
61682;BME280;47577;43.610;25.010;2022-12-29T03:12:44;101516.25;;;2.38;78.75
61682;BME280;47577;43.610;25.010;2022-12-29T03:19:02;101507.28;;;2.26;79.33
61682;BME280;47577;43.610;25.010;2022-12-29T03:21:34;101510.84;;;2.29;79.01
61682;BME280;47577;43.610;25.010;2022-12-29T03:24:24;101520.47;;;2.29;79.76
61682;BME280;47577;43.610;25.010;2022-12-29T03:26:53;101514.28;;;2.25;79.75
61682;BME280;47577;43.610;25.010;2022-12-29T03:29:21;101518.69;;;2.28;79.48
61682;BME280;47577;43.610;25.010;2022-12-29T03:31:48;101511.56;;;2.21;78.97
61682;BME280;47577;43.610;25.010;2022-12-29T03:34:16;101524.63;;;2.17;78.60
61682;BME280;47577;43.610;25.010;2022-12-29T03:36:49;101519.16;;;2.07;79.10
61682;BME280;47577;43.610;25.010;2022-12-29T03:39:17;101521.69;;;2.02;79.61
61682;BME280;47577;43.610;25.010;2022-12-29T03:41:46;101519.06;;;2.02;79.02
61682;BME280;47577;43.610;25.010;2022-12-29T03:44:15;101516.41;;;2.00;78.14
61682;BME280;47577;43.610;25.010;2022-12-29T03:46:40;101523.47;;;2.03;78.26
61682;BME280;47577;43.610;25.010;2022-12-29T03:49:06;101528.53;;;1.94;77.55
61682;BME280;47577;43.610;25.010;2022-12-29T03:51:31;101524.13;;;1.91;77.84
61682;BME280;47577;43.610;25.010;2022-12-29T03:53:57;101539.00;;;1.92;76.86
61682;BME280;47577;43.610;25.010;2022-12-29T03:56:23;101521.22;;;1.77;76.65
61682;BME280;47577;43.610;25.010;2022-12-29T03:58:48;101522.69;;;1.63;76.81
61682;BME280;47577;43.610;25.010;2022-12-29T04:01:14;101529.41;;;1.50;77.45
61682;BME280;47577;43.610;25.010;2022-12-29T04:03:39;101540.75;;;1.51;77.42
61682;BME280;47577;43.610;25.010;2022-12-29T04:06:05;101530.84;;;1.36;77.53
61682;BME280;47577;43.610;25.010;2022-12-29T04:08:31;101537.72;;;1.31;78.54
61682;BME280;47577;43.610;25.010;2022-12-29T04:10:56;101548.97;;;1.25;77.39
61682;BME280;47577;43.610;25.010;2022-12-29T04:13:22;101542.50;;;1.11;77.11
61682;BME280;47577;43.610;25.010;2022-12-29T04:15:48;101548.69;;;1.14;78.70
61682;BME280;47577;43.610;25.010;2022-12-29T04:18:13;101544.03;;;1.01;79.23
61682;BME280;47577;43.610;25.010;2022-12-29T04:20:39;101552.00;;;1.05;79.35
61682;BME280;47577;43.610;25.010;2022-12-29T04:23:23;101549.97;;;0.94;78.97
61682;BME280;47577;43.610;25.010;2022-12-29T04:25:49;101556.00;;;0.89;78.85
61682;BME280;47577;43.610;25.010;2022-12-29T04:28:16;101555.97;;;0.54;82.12
61682;BME280;47577;43.610;25.010;2022-12-29T04:30:45;101566.56;;;0.59;82.00
61682;BME280;47577;43.610;25.010;2022-12-29T04:33:14;101562.34;;;0.64;81.50
61682;BME280;47577;43.610;25.010;2022-12-29T04:35:40;101565.94;;;0.69;79.76
61682;BME280;47577;43.610;25.010;2022-12-29T04:38:05;101569.31;;;0.64;78.64
61682;BME280;47577;43.610;25.010;2022-12-29T04:40:31;101569.16;;;0.58;78.05
61682;BME280;47577;43.610;25.010;2022-12-29T04:42:56;101573.44;;;0.54;78.83
61682;BME280;47577;43.610;25.010;2022-12-29T04:45:22;101575.97;;;0.51;79.09
61682;BME280;47577;43.610;25.010;2022-12-29T04:47:48;101576.66;;;0.45;79.63
61682;BME280;47577;43.610;25.010;2022-12-29T04:50:13;101583.59;;;0.43;78.92
61682;BME280;47577;43.610;25.010;2022-12-29T04:52:39;101570.22;;;0.31;80.49
61682;BME280;47577;43.610;25.010;2022-12-29T04:55:06;101570.16;;;0.29;79.38
61682;BME280;47577;43.610;25.010;2022-12-29T04:57:31;101573.63;;;0.28;79.95
61682;BME280;47577;43.610;25.010;2022-12-29T04:59:57;101569.94;;;0.22;79.18
61682;BME280;47577;43.610;25.010;2022-12-29T05:02:23;101573.50;;;0.24;78.64
61682;BME280;47577;43.610;25.010;2022-12-29T05:04:49;101575.19;;;0.22;78.77
61682;BME280;47577;43.610;25.010;2022-12-29T05:07:14;101575.09;;;0.18;78.12
61682;BME280;47577;43.610;25.010;2022-12-29T05:09:40;101562.44;;;0.02;78.50
61682;BME280;47577;43.610;25.010;2022-12-29T05:12:06;101570.25;;;0.01;80.95
61682;BME280;47577;43.610;25.010;2022-12-29T05:14:34;101568.59;;;0.04;80.01
61682;BME280;47577;43.610;25.010;2022-12-29T05:17:00;101568.41;;;-0.02;79.31
61682;BME280;47577;43.610;25.010;2022-12-29T05:19:26;101565.56;;;-0.11;78.44
61682;BME280;47577;43.610;25.010;2022-12-29T05:21:51;101575.94;;;-0.14;79.15
61682;BME280;47577;43.610;25.010;2022-12-29T05:24:17;101572.41;;;-0.15;80.87
61682;BME280;47577;43.610;25.010;2022-12-29T05:26:42;101577.59;;;-0.16;80.00
61682;BME280;47577;43.610;25.010;2022-12-29T05:29:08;101573.72;;;-0.29;79.93
61682;BME280;47577;43.610;25.010;2022-12-29T05:31:34;101570.09;;;-0.34;80.20
61682;BME280;47577;43.610;25.010;2022-12-29T05:34:01;101579.59;;;-0.38;81.36
61682;BME280;47577;43.610;25.010;2022-12-29T05:36:27;101583.13;;;-0.36;80.29
61682;BME280;47577;43.610;25.010;2022-12-29T05:38:52;101582.34;;;-0.33;80.76
61682;BME280;47577;43.610;25.010;2022-12-29T05:41:18;101586.75;;;-0.31;79.24
61682;BME280;47577;43.610;25.010;2022-12-29T05:43:44;101586.75;;;-0.31;79.34
61682;BME280;47577;43.610;25.010;2022-12-29T05:46:09;101588.72;;;-0.24;80.05
61682;BME280;47577;43.610;25.010;2022-12-29T05:48:35;101599.19;;;-0.24;80.74
61682;BME280;47577;43.610;25.010;2022-12-29T05:51:00;101589.31;;;-0.34;81.02
61682;BME280;47577;43.610;25.010;2022-12-29T05:53:26;101588.69;;;-0.54;81.98
61682;BME280;47577;43.610;25.010;2022-12-29T05:55:52;101591.00;;;-0.34;81.78
61682;BME280;47577;43.610;25.010;2022-12-29T05:58:17;101592.88;;;-0.30;81.63
61682;BME280;47577;43.610;25.010;2022-12-29T06:00:43;101599.09;;;-0.27;80.38
61682;BME280;47577;43.610;25.010;2022-12-29T06:03:09;101596.34;;;-0.31;79.48
61682;BME280;47577;43.610;25.010;2022-12-29T06:05:35;101599.81;;;-0.32;80.76
61682;BME280;47577;43.610;25.010;2022-12-29T06:08:00;101600.25;;;-0.46;79.04
61682;BME280;47577;43.610;25.010;2022-12-29T06:10:26;101603.84;;;-0.42;79.38
61682;BME280;47577;43.610;25.010;2022-12-29T06:12:52;101606.44;;;-0.44;79.56
61682;BME280;47577;43.610;25.010;2022-12-29T06:15:18;101606.78;;;-0.60;81.20
61682;BME280;47577;43.610;25.010;2022-12-29T06:17:47;101614.00;;;-0.53;82.34
61682;BME280;47577;43.610;25.010;2022-12-29T06:20:12;101615.78;;;-0.50;82.28
61682;BME280;47577;43.610;25.010;2022-12-29T06:22:38;101618.56;;;-0.46;81.35
61682;BME280;47577;43.610;25.010;2022-12-29T06:25:04;101612.50;;;-0.45;82.17
61682;BME280;47577;43.610;25.010;2022-12-29T06:27:31;101615.16;;;-0.43;81.85
61682;BME280;47577;43.610;25.010;2022-12-29T06:29:57;101620.34;;;-0.45;81.85
61682;BME280;47577;43.610;25.010;2022-12-29T06:32:22;101613.22;;;-0.49;81.85
61682;BME280;47577;43.610;25.010;2022-12-29T06:34:48;101619.56;;;-0.41;82.32
61682;BME280;47577;43.610;25.010;2022-12-29T06:37:14;101616.66;;;-0.51;82.59
61682;BME280;47577;43.610;25.010;2022-12-29T06:39:40;101617.47;;;-0.52;83.36
61682;BME280;47577;43.610;25.010;2022-12-29T06:42:05;101614.19;;;-0.47;83.83
61682;BME280;47577;43.610;25.010;2022-12-29T06:44:31;101615.09;;;-0.45;83.40
61682;BME280;47577;43.610;25.010;2022-12-29T06:46:57;101618.84;;;-0.37;83.53
61682;BME280;47577;43.610;25.010;2022-12-29T06:49:23;101631.28;;;-0.28;82.70
61682;BME280;47577;43.610;25.010;2022-12-29T06:51:48;101614.00;;;-0.24;83.22
61682;BME280;47577;43.610;25.010;2022-12-29T06:54:14;101616.91;;;-0.13;83.50
61682;BME280;47577;43.610;25.010;2022-12-29T06:56:40;101614.63;;;-0.03;84.03
61682;BME280;47577;43.610;25.010;2022-12-29T06:59:05;101630.63;;;0.08;83.75
61682;BME280;47577;43.610;25.010;2022-12-29T07:01:31;101633.34;;;0.13;83.58
61682;BME280;47577;43.610;25.010;2022-12-29T07:03:57;101632.00;;;0.27;83.50
61682;BME280;47577;43.610;25.010;2022-12-29T07:06:23;101628.00;;;0.40;83.54
61682;BME280;47577;43.610;25.010;2022-12-29T07:08:49;101624.03;;;0.54;83.03
61682;BME280;47577;43.610;25.010;2022-12-29T07:11:15;101621.78;;;0.68;82.62
61682;BME280;47577;43.610;25.010;2022-12-29T07:13:41;101622.13;;;0.82;82.72
61682;BME280;47577;43.610;25.010;2022-12-29T07:16:08;101623.44;;;1.00;83.01
61682;BME280;47577;43.610;25.010;2022-12-29T07:18:34;101630.78;;;1.15;83.71
61682;BME280;47577;43.610;25.010;2022-12-29T07:21:00;101635.50;;;1.30;83.26
61682;BME280;47577;43.610;25.010;2022-12-29T07:23:26;101635.78;;;1.40;83.94
61682;BME280;47577;43.610;25.010;2022-12-29T07:26:01;101629.34;;;1.64;82.57
61682;BME280;47577;43.610;25.010;2022-12-29T07:28:27;101614.81;;;1.78;81.76
61682;BME280;47577;43.610;25.010;2022-12-29T07:30:52;101609.00;;;1.93;81.33
61682;BME280;47577;43.610;25.010;2022-12-29T07:33:18;101617.25;;;2.13;80.81
61682;BME280;47577;43.610;25.010;2022-12-29T07:35:44;101604.50;;;2.32;80.50
61682;BME280;47577;43.610;25.010;2022-12-29T07:38:09;101615.38;;;2.52;79.80
61682;BME280;47577;43.610;25.010;2022-12-29T07:40:35;101609.50;;;2.65;80.31
61682;BME280;47577;43.610;25.010;2022-12-29T07:43:00;101603.63;;;2.79;80.12
61682;BME280;47577;43.610;25.010;2022-12-29T07:45:26;101613.53;;;2.95;78.91
61682;BME280;47577;43.610;25.010;2022-12-29T07:47:52;101608.44;;;3.06;79.94
61682;BME280;47577;43.610;25.010;2022-12-29T07:50:17;101613.91;;;3.18;79.25
61682;BME280;47577;43.610;25.010;2022-12-29T07:52:43;101596.41;;;3.20;79.95
61682;BME280;47577;43.610;25.010;2022-12-29T07:55:10;101609.78;;;3.34;79.67
61682;BME280;47577;43.610;25.010;2022-12-29T07:57:35;101610.81;;;3.45;78.53
61682;BME280;47577;43.610;25.010;2022-12-29T08:00:02;101625.03;;;3.58;78.87
61682;BME280;47577;43.610;25.010;2022-12-29T08:02:29;101613.75;;;3.67;78.99
61682;BME280;47577;43.610;25.010;2022-12-29T08:04:55;101611.25;;;3.78;78.65
61682;BME280;47577;43.610;25.010;2022-12-29T08:07:20;101610.56;;;3.91;77.69
61682;BME280;47577;43.610;25.010;2022-12-29T08:09:46;101619.53;;;4.07;78.28
61682;BME280;47577;43.610;25.010;2022-12-29T08:12:12;101606.44;;;4.12;77.81
61682;BME280;47577;43.610;25.010;2022-12-29T08:14:37;101611.84;;;4.27;77.57
61682;BME280;47577;43.610;25.010;2022-12-29T08:17:03;101608.47;;;4.37;76.21
61682;BME280;47577;43.610;25.010;2022-12-29T08:19:29;101602.41;;;4.45;76.70
61682;BME280;47577;43.610;25.010;2022-12-29T08:21:56;101609.47;;;4.52;75.97
61682;BME280;47577;43.610;25.010;2022-12-29T08:24:22;101602.47;;;4.49;76.23
61682;BME280;47577;43.610;25.010;2022-12-29T08:26:47;101597.31;;;4.62;78.38
61682;BME280;47577;43.610;25.010;2022-12-29T08:29:13;101594.88;;;4.83;77.53
61682;BME280;47577;43.610;25.010;2022-12-29T08:31:39;101597.41;;;4.74;76.24
61682;BME280;47577;43.610;25.010;2022-12-29T08:34:04;101602.88;;;4.91;75.44
61682;BME280;47577;43.610;25.010;2022-12-29T08:36:31;101601.09;;;4.90;76.18
61682;BME280;47577;43.610;25.010;2022-12-29T08:38:57;101602.97;;;5.06;74.82
61682;BME280;47577;43.610;25.010;2022-12-29T08:41:22;101591.59;;;5.12;76.43
61682;BME280;47577;43.610;25.010;2022-12-29T08:43:49;101601.34;;;5.21;76.19
61682;BME280;47577;43.610;25.010;2022-12-29T08:46:15;101592.56;;;5.22;76.12
61682;BME280;47577;43.610;25.010;2022-12-29T08:48:42;101602.28;;;5.32;74.76
61682;BME280;47577;43.610;25.010;2022-12-29T08:51:08;101606.78;;;5.45;76.02
61682;BME280;47577;43.610;25.010;2022-12-29T08:53:34;101577.78;;;5.48;75.78
61682;BME280;47577;43.610;25.010;2022-12-29T08:56:01;101592.84;;;5.68;74.07
61682;BME280;47577;43.610;25.010;2022-12-29T08:58:27;101584.06;;;5.71;74.27
61682;BME280;47577;43.610;25.010;2022-12-29T09:00:54;101580.59;;;5.84;74.64
61682;BME280;47577;43.610;25.010;2022-12-29T09:03:20;101576.16;;;5.81;73.91
61682;BME280;47577;43.610;25.010;2022-12-29T09:05:51;101578.88;;;5.94;73.81
61682;BME280;47577;43.610;25.010;2022-12-29T09:08:17;101557.75;;;5.92;73.38
61682;BME280;47577;43.610;25.010;2022-12-29T09:10:44;101561.34;;;6.03;72.54
61682;BME280;47577;43.610;25.010;2022-12-29T09:13:11;101561.34;;;6.07;73.39
61682;BME280;47577;43.610;25.010;2022-12-29T09:15:37;101568.44;;;6.11;72.93
61682;BME280;47577;43.610;25.010;2022-12-29T09:18:03;101560.50;;;6.11;72.44
61682;BME280;47577;43.610;25.010;2022-12-29T09:20:29;101561.41;;;6.23;73.62
61682;BME280;47577;43.610;25.010;2022-12-29T09:22:54;101571.13;;;6.31;73.46
61682;BME280;47577;43.610;25.010;2022-12-29T09:25:20;101564.97;;;6.41;73.29
61682;BME280;47577;43.610;25.010;2022-12-29T09:27:52;101565.84;;;6.45;72.45
61682;BME280;47577;43.610;25.010;2022-12-29T09:30:19;101560.56;;;6.46;73.06
61682;BME280;47577;43.610;25.010;2022-12-29T09:32:45;101550.88;;;6.57;72.64
61682;BME280;47577;43.610;25.010;2022-12-29T09:35:12;101551.81;;;6.64;74.02
61682;BME280;47577;43.610;25.010;2022-12-29T09:37:38;101548.28;;;6.74;72.86
61682;BME280;47577;43.610;25.010;2022-12-29T09:40:05;101550.03;;;6.82;71.28
61682;BME280;47577;43.610;25.010;2022-12-29T09:45:57;101546.53;;;6.98;70.84
61682;BME280;47577;43.610;25.010;2022-12-29T09:48:34;101525.38;;;6.87;70.79
61682;BME280;47577;43.610;25.010;2022-12-29T09:51:10;101538.56;;;7.00;71.54
61682;BME280;47577;43.610;25.010;2022-12-29T09:53:41;101535.03;;;7.16;71.23
61682;BME280;47577;43.610;25.010;2022-12-29T09:56:21;101529.69;;;7.30;69.62
61682;BME280;47577;43.610;25.010;2022-12-29T09:59:11;101530.56;;;7.44;69.31
61682;BME280;47577;43.610;25.010;2022-12-29T10:01:52;101517.31;;;7.43;68.70
61682;BME280;47577;43.610;25.010;2022-12-29T10:04:20;101517.34;;;7.33;68.19
61682;BME280;47577;43.610;25.010;2022-12-29T10:06:58;101517.31;;;7.43;68.58
61682;BME280;47577;43.610;25.010;2022-12-29T10:09:33;101512.84;;;7.65;70.66
61682;BME280;47577;43.610;25.010;2022-12-29T10:20:52;101499.47;;;7.93;68.34
61682;BME280;47577;43.610;25.010;2022-12-29T10:23:36;101511.78;;;8.01;68.30
61682;BME280;47577;43.610;25.010;2022-12-29T10:26:10;101492.31;;;8.10;67.43
61682;BME280;47577;43.610;25.010;2022-12-29T10:28:54;101493.09;;;8.26;66.52
61682;BME280;47577;43.610;25.010;2022-12-29T10:31:23;101497.41;;;8.42;66.38
61682;BME280;47577;43.610;25.010;2022-12-29T10:33:53;101481.53;;;8.36;65.62
61682;BME280;47577;43.610;25.010;2022-12-29T10:36:24;101494.69;;;8.50;66.01
61682;BME280;47577;43.610;25.010;2022-12-29T10:41:39;101493.69;;;8.70;65.32
61682;BME280;47577;43.610;25.010;2022-12-29T10:44:09;101484.00;;;8.64;62.90
61682;BME280;47577;43.610;25.010;2022-12-29T10:46:38;101481.25;;;8.76;64.64
61682;BME280;47577;43.610;25.010;2022-12-29T10:49:06;101478.50;;;8.84;64.78
61682;BME280;47577;43.610;25.010;2022-12-29T10:51:41;101481.91;;;8.97;64.46
61682;BME280;47577;43.610;25.010;2022-12-29T10:54:13;101481.78;;;9.12;65.39
61682;BME280;47577;43.610;25.010;2022-12-29T10:56:44;101488.72;;;9.23;62.22
61682;BME280;47577;43.610;25.010;2022-12-29T10:59:44;101477.97;;;9.35;62.42
61682;BME280;47577;43.610;25.010;2022-12-29T11:07:07;101481.59;;;9.28;63.54
61682;BME280;47577;43.610;25.010;2022-12-29T11:09:36;101472.63;;;9.40;62.36
61682;BME280;47577;43.610;25.010;2022-12-29T11:12:32;101473.34;;;9.52;63.16
61682;BME280;47577;43.610;25.010;2022-12-29T11:15:15;101464.41;;;9.58;61.20
61682;BME280;47577;43.610;25.010;2022-12-29T11:17:52;101453.81;;;9.57;61.40
61682;BME280;47577;43.610;25.010;2022-12-29T11:20:37;101456.44;;;9.60;61.39
61682;BME280;47577;43.610;25.010;2022-12-29T11:23:21;101454.75;;;9.56;62.05
61682;BME280;47577;43.610;25.010;2022-12-29T11:29:20;101448.53;;;9.54;62.15
61682;BME280;47577;43.610;25.010;2022-12-29T11:31:48;101452.94;;;9.56;61.95
61682;BME280;47577;43.610;25.010;2022-12-29T11:34:23;101450.53;;;9.36;62.18
61682;BME280;47577;43.610;25.010;2022-12-29T11:36:52;101454.81;;;9.48;61.69
61682;BME280;47577;43.610;25.010;2022-12-29T11:39:29;101453.00;;;9.51;63.41
61682;BME280;47577;43.610;25.010;2022-12-29T11:41:56;101451.09;;;9.63;62.21
61682;BME280;47577;43.610;25.010;2022-12-29T11:44:23;101434.13;;;9.72;61.56
61682;BME280;47577;43.610;25.010;2022-12-29T11:46:51;101428.72;;;9.79;60.70
61682;BME280;47577;43.610;25.010;2022-12-29T11:49:23;101434.03;;;9.79;61.47
61682;BME280;47577;43.610;25.010;2022-12-29T11:51:51;101426.84;;;9.87;61.16
61682;BME280;47577;43.610;25.010;2022-12-29T11:54:26;101420.56;;;9.93;61.00
61682;BME280;47577;43.610;25.010;2022-12-29T11:56:56;101433.75;;;9.99;60.11
61682;BME280;47577;43.610;25.010;2022-12-29T12:01:58;101430.22;;;9.99;59.95
61682;BME280;47577;43.610;25.010;2022-12-29T12:04:30;101428.53;;;9.95;60.58
61682;BME280;47577;43.610;25.010;2022-12-29T12:07:12;101426.72;;;9.97;60.92
61682;BME280;47577;43.610;25.010;2022-12-29T12:09:47;101413.50;;;9.92;61.74
61682;BME280;47577;43.610;25.010;2022-12-29T12:12:28;101423.94;;;10.06;60.42
61682;BME280;47577;43.610;25.010;2022-12-29T12:14:57;101409.88;;;9.98;59.75
61682;BME280;47577;43.610;25.010;2022-12-29T12:17:30;101412.47;;;10.01;60.60
61682;BME280;47577;43.610;25.010;2022-12-29T12:22:35;101412.19;;;10.19;60.67
61682;BME280;47577;43.610;25.010;2022-12-29T12:25:19;101406.88;;;10.19;59.99
61682;BME280;47577;43.610;25.010;2022-12-29T12:27:54;101408.56;;;10.23;59.23
61682;BME280;47577;43.610;25.010;2022-12-29T12:30:24;101403.97;;;10.36;60.64
61682;BME280;47577;43.610;25.010;2022-12-29T12:33:10;101390.84;;;10.24;58.75
61682;BME280;47577;43.610;25.010;2022-12-29T12:41:09;101402.00;;;10.46;58.36
61682;BME280;47577;43.610;25.010;2022-12-29T12:43:40;101399.53;;;10.37;59.68
61682;BME280;47577;43.610;25.010;2022-12-29T12:46:49;101401.09;;;10.49;58.68
61682;BME280;47577;43.610;25.010;2022-12-29T12:49:46;101403.19;;;10.27;57.89
61682;BME280;47577;43.610;25.010;2022-12-29T13:00:59;101414.16;;;10.06;59.82
61682;BME280;47577;43.610;25.010;2022-12-29T13:09:33;101404.00;;;10.32;58.10
61682;BME280;47577;43.610;25.010;2022-12-29T13:12:16;101406.75;;;10.27;57.96
61682;BME280;47577;43.610;25.010;2022-12-29T13:15:01;101405.97;;;10.20;57.34
61682;BME280;47577;43.610;25.010;2022-12-29T13:17:45;101411.38;;;10.16;57.71
61682;BME280;47577;43.610;25.010;2022-12-29T13:20:47;101413.19;;;10.11;58.49
61682;BME280;47577;43.610;25.010;2022-12-29T13:26:21;101403.69;;;9.96;59.30
61682;BME280;47577;43.610;25.010;2022-12-29T13:31:37;101419.94;;;10.32;57.80
61682;BME280;47577;43.610;25.010;2022-12-29T13:36:54;101399.97;;;10.09;57.62
61682;BME280;47577;43.610;25.010;2022-12-29T13:39:33;101402.63;;;10.09;57.52
61682;BME280;47577;43.610;25.010;2022-12-29T13:42:01;101408.81;;;10.08;58.45
61682;BME280;47577;43.610;25.010;2022-12-29T13:44:31;101408.88;;;10.05;59.00
61682;BME280;47577;43.610;25.010;2022-12-29T13:47:02;101395.53;;;10.08;59.17
61682;BME280;47577;43.610;25.010;2022-12-29T13:49:32;101392.94;;;10.05;57.86
61682;BME280;47577;43.610;25.010;2022-12-29T13:52:42;101405.31;;;10.06;57.75
61682;BME280;47577;43.610;25.010;2022-12-29T13:55:24;101406.31;;;9.97;58.63
61682;BME280;47577;43.610;25.010;2022-12-29T13:58:26;101404.69;;;9.88;57.84
61682;BME280;47577;43.610;25.010;2022-12-29T14:03:56;101396.84;;;9.81;58.97
61682;BME280;47577;43.610;25.010;2022-12-29T14:06:30;101396.09;;;9.71;58.86
61682;BME280;47577;43.610;25.010;2022-12-29T14:08:58;101404.06;;;9.69;59.04
61682;BME280;47577;43.610;25.010;2022-12-29T14:13:56;101386.78;;;9.39;59.27
61682;BME280;47577;43.610;25.010;2022-12-29T14:16:41;101390.47;;;9.29;59.91
61682;BME280;47577;43.610;25.010;2022-12-29T14:19:29;101400.19;;;9.31;60.02
61682;BME280;47577;43.610;25.010;2022-12-29T14:21:58;101395.84;;;9.21;60.52
61682;BME280;47577;43.610;25.010;2022-12-29T14:24:40;101396.06;;;9.04;60.30
61682;BME280;47577;43.610;25.010;2022-12-29T14:34:58;101383.50;;;8.35;61.22
61682;BME280;47577;43.610;25.010;2022-12-29T14:37:27;101405.66;;;8.26;62.65
61682;BME280;47577;43.610;25.010;2022-12-29T14:40:04;101411.03;;;8.17;61.55
61682;BME280;47577;43.610;25.010;2022-12-29T14:42:32;101406.78;;;7.94;61.82
61682;BME280;47577;43.610;25.010;2022-12-29T14:47:41;101423.75;;;7.53;62.46
61682;BME280;47577;43.610;25.010;2022-12-29T14:50:15;101415.91;;;7.35;63.11
61682;BME280;47577;43.610;25.010;2022-12-29T14:52:59;101412.47;;;7.14;63.63
61682;BME280;47577;43.610;25.010;2022-12-29T14:55:36;101419.59;;;6.98;64.08
61682;BME280;47577;43.610;25.010;2022-12-29T14:58:06;101406.44;;;6.59;64.80